• Join FlightAware (Why Join?)
  • Login
  • US Flag 
09:00PM EST


 

Airport Tracker/Info


-or-


 

Live Flight TrackerFlight Track Log ✈ SWA1718 ✈ 09-Apr-2013 ✈ KMDW - KLAX

Flight Track Log - Related Links

Times and Time Zones

All times are in EDT time to prevent confusion due to time zone crossing. See the SWA1718 flight status page for this flight to view local times or setup timezone preferences in your user account.

Time Position Orientation Groundspeed Altitude Reporting Facility
EDT Latitude Longitude Course Direction KTS MPH feet Rate Location/Type
07:22AM 41.8167 -87.7500 289° West 193 222 2,200  Level Chicago TRACON
07:23AM 41.8333 -87.8167 289° West 246 283 3,000 360 Climbing Chicago TRACON
07:24AM 41.8200 -87.8797 254° West 234 269 2,900  Descending Chicago Center
07:25AM 41.8008 -87.9603 252° West 232 267 3,000 480 Climbing Chicago Center
07:26AM 41.7892 -88.0447 260° West 237 273 3,900 480 Climbing Chicago Center
07:27AM 41.7892 -88.1314 270° West 235 270 4,000 780 Climbing Chicago Center
07:28AM 41.7925 -88.2372 272° West 238 274 5,600 2,520 Climbing Chicago Center
07:29AM 41.7958 -88.3397 273° West 270 311 9,200 3,000 Climbing Chicago Center
07:30AM 41.7917 -88.4506 267° West 305 351 11,800 3,060 Climbing Chicago Center
07:31AM 41.7678 -88.5672 255° West 327 376 15,500 3,240 Climbing Chicago Center
07:32AM 41.7428 -88.6872 254° West 334 384 18,500 2,880 Climbing Chicago Center
07:33AM 41.7175 -88.8106 255° West 345 397 21,400 2,400 Climbing Chicago Center
07:34AM 41.6900 -88.9389 254° West 358 412 23,500 2,040 Climbing Chicago Center
07:35AM 41.6561 -89.1006 254° West 376 433 25,700 1,920 Climbing Chicago Center
07:36AM 41.6278 -89.2389 255° West 389 448 27,500 1,500 Climbing Chicago Center
07:37AM 41.5975 -89.3819 254° West 401 461 28,800 1,500 Climbing Chicago Center
07:38AM 41.5661 -89.5275 254° West 410 472 30,600 1,500 Climbing Chicago Center
07:39AM 41.5364 -89.6667 254° West 415 478 31,900 1,380 Climbing Chicago Center
07:40AM 41.5047 -89.8153 254° West 419 482 33,500 1,920 Climbing Chicago Center
07:41AM 41.4661 -89.9917 254° West 415 478 35,900 1,200 Climbing Chicago Center
07:42AM 41.4353 -90.1306 254° West 399 459 36,000  Climbing Chicago Center
07:43AM 41.4044 -90.2711 254° West 398 458 36,000  Level Chicago Center
07:44AM 41.3739 -90.4103 254° West 396 456 36,000 540 Level Chicago Center
07:45AM 41.3422 -90.5492 253° West 396 456 37,100 960 Climbing Chicago Center
07:46AM 41.3075 -90.6881 252° West 398 458 38,000 420 Climbing Chicago Center
07:47AM 41.2689 -90.8167 248° West 382 440 38,000  Level Chicago Center
07:48AM 41.2306 -90.9469 249° West 379 436 38,000  Level Chicago Center
07:49AM 41.1842 -91.1039 249° West 381 438 38,000  Level Chicago Center
07:50AM 41.1453 -91.2347 248° West 384 442 38,000  Level Chicago Center
07:51AM 41.1047 -91.3669 248° West 386 444 38,000  Level Chicago Center
07:52AM 41.0653 -91.4994 248° West 388 447 38,000  Level Chicago Center
07:53AM 41.0256 -91.6325 248° West 389 448 38,000  Level Chicago Center
07:54AM 40.9858 -91.7597 248° West 390 449 38,000  Level Chicago Center
07:55AM 40.9383 -91.9197 249° West 392 451 38,000  Level Chicago Center
07:56AM 40.8978 -92.0500 248° West 389 448 38,000  Level Chicago Center
07:57AM 40.8567 -92.1800 247° West 388 447 38,000  Level Chicago Center
07:58AM 40.8300 -92.3164 256° West 387 445 38,000  Level Chicago Center
07:59AM 40.8089 -92.4556 259° West 390 449 38,000  Level Chicago Center
08:00AM 40.7892 -92.5942 259° West 391 450 38,000  Level Chicago Center
08:02AM 40.7667 -92.7600 260° West 390 449 38,000  Level Chicago Center
08:03AM 40.7461 -92.8978 259° West 389 448 38,000  Level Chicago Center
08:03AM 40.7331 -92.9828 259° West 391 450 38,000  Level Minneapolis Center
08:04AM 40.7089 -93.1494 259° West 392 451 38,000  Level Minneapolis Center
08:05AM 40.6872 -93.2886 258° West 392 451 38,000  Level Minneapolis Center
08:06AM 40.6656 -93.4303 259° West 395 455 38,000  Level Minneapolis Center
08:07AM 40.6439 -93.5728 259° West 399 459 38,000  Level Minneapolis Center
08:08AM 40.6231 -93.7133 259° West 397 457 38,000  Level Minneapolis Center
08:09AM 40.6006 -93.8547 258° West 397 457 38,000  Level Minneapolis Center
08:10AM 40.5786 -93.9947 258° West 395 455 38,000  Level Minneapolis Center
08:11AM 40.5572 -94.1333 259° West 391 450 38,000  Level Minneapolis Center
08:12AM 40.5286 -94.3011 257° West 393 452 38,000  Level Minneapolis Center
08:13AM 40.5089 -94.4425 260° West 396 456 38,000  Level Minneapolis Center
08:14AM 40.4844 -94.5828 257° West 395 455 38,000  Level Minneapolis Center
08:15AM 40.4625 -94.7233 258° West 393 452 38,000  Level Minneapolis Center
08:16AM 40.4392 -94.8653 258° West 396 456 38,000  Level Minneapolis Center
08:18AM 40.4175 -95.0019 258° West 388 447 38,000  Level Minneapolis Center
08:19AM 40.3942 -95.1417 258° West 389 448 38,000  Level Minneapolis Center
08:20AM 40.3708 -95.2775 257° West 384 442 38,000  Level Minneapolis Center
08:21AM 40.3478 -95.4156 258° West 386 444 38,000  Level Minneapolis Center
08:22AM 40.3253 -95.5550 258° West 389 448 38,000  Level Minneapolis Center
08:23AM 40.2961 -95.7228 257° West 392 451 38,000  Level Minneapolis Center
08:24AM 40.2678 -95.8917 258° West 394 453 38,000  Level Minneapolis Center
08:25AM 40.2422 -96.0308 257° West 393 452 38,000  Level Minneapolis Center
08:26AM 40.2139 -96.1983 258° West 392 451 38,000  Level Minneapolis Center
08:27AM 40.1883 -96.3358 256° West 390 449 38,000  Level Minneapolis Center
08:28AM 40.1644 -96.4731 257° West 387 445 38,000  Level Minneapolis Center
08:29AM 40.1406 -96.6089 257° West 385 443 38,000  Level Minneapolis Center
08:30AM 40.1150 -96.7458 256° West 387 445 38,000  Level Minneapolis Center
08:31AM 40.0906 -96.8833 257° West 388 447 38,000  Level Minneapolis Center
08:32AM 40.0653 -97.0211 257° West 389 448 38,000  Level Minneapolis Center
08:33AM 40.0389 -97.1572 256° West 388 447 38,000  Level Minneapolis Center
08:34AM 40.0142 -97.2947 257° West 389 448 38,000  Level Minneapolis Center
08:35AM 39.9847 -97.4536 256° West 390 449 38,000  Level Minneapolis Center
08:36AM 39.9581 -97.5897 256° West 388 447 38,000  Level Minneapolis Center
08:37AM 39.9325 -97.7250 256° West 386 444 38,000  Level Minneapolis Center
08:38AM 39.9064 -97.8597 256° West 384 442 38,000  Level Minneapolis Center
08:39AM 39.8800 -97.9947 256° West 383 441 38,000  Level Minneapolis Center
08:40AM 39.8542 -98.1292 256° West 382 440 38,000  Level Minneapolis Center
08:41AM 39.8278 -98.2625 256° West 381 438 38,000  Level Minneapolis Center
08:42AM 39.8011 -98.3961 255° West 381 438 38,000  Level Minneapolis Center
08:43AM 39.7756 -98.5292 256° West 379 436 38,000  Level Minneapolis Center
08:44AM 39.7492 -98.6606 255° West 376 433 38,000  Level Minneapolis Center
08:45AM 39.7219 -98.7925 255° West 377 434 38,000  Level Minneapolis Center
08:46AM 39.6900 -98.9503 255° West 376 433 38,000  Level Minneapolis Center
08:47AM 39.6850 -98.9775 257° West 377 434 38,000  Level Denver Center
08:48AM 39.6581 -99.1103 255° West 378 435 38,000  Level Denver Center
08:49AM 39.6306 -99.2408 255° West 377 434 38,000  Level Denver Center
08:50AM 39.6039 -99.3719 255° West 376 433 38,000  Level Denver Center
08:51AM 39.5767 -99.5031 255° West 375 432 38,000  Level Denver Center
08:52AM 39.5497 -99.6322 255° West 373 429 38,000  Level Denver Center
08:53AM 39.5217 -99.7614 254° West 373 429 38,000  Level Denver Center
08:54AM 39.4931 -99.9006 255° West 377 434 38,000  Level Denver Center
08:55AM 39.4661 -100.0239 254° West 375 432 38,000  Level Denver Center
08:56AM 39.4394 -100.1481 254° West 375 432 38,000  Level Denver Center
08:57AM 39.4092 -100.2917 255° West 372 428 38,000  Level Denver Center
08:58AM 39.3814 -100.4147 254° West 373 429 38,000  Level Denver Center
08:59AM 39.3547 -100.5392 255° West 373 429 38,000  Level Denver Center
09:00AM 39.3231 -100.6847 254° West 375 432 38,000  Level Denver Center
09:01AM 39.2947 -100.8081 254° West 374 430 38,000  Level Denver Center
09:02AM 39.2672 -100.9344 254° West 381 438 38,000  Level Denver Center
09:03AM 39.2344 -101.0819 254° West 384 442 38,000  Level Denver Center
09:04AM 39.2067 -101.2103 254° West 387 445 38,000  Level Denver Center
09:05AM 39.1767 -101.3372 253° West 389 448 38,000  Level Denver Center
09:06AM 39.1439 -101.4853 254° West 383 441 38,000  Level Denver Center
09:07AM 39.1161 -101.6131 254° West 386 444 38,000  Level Denver Center
09:08AM 39.0867 -101.7361 253° West 378 435 38,000  Level Denver Center
09:09AM 39.0561 -101.8569 252° West 375 432 38,000  Level Denver Center
09:10AM 39.0225 -102.0014 253° West 378 435 38,000  Level Denver Center
09:11AM 38.9933 -102.1258 253° West 380 437 38,000  Level Denver Center
09:12AM 38.9653 -102.2483 254° West 375 432 38,000  Level Denver Center
09:13AM 38.9317 -102.3908 253° West 374 430 38,000  Level Denver Center
09:14AM 38.9008 -102.5133 252° West 377 434 38,000  Level Denver Center
09:15AM 38.8731 -102.6344 254° West 373 429 38,000  Level Denver Center
09:16AM 38.8403 -102.7711 253° West 373 429 38,000  Level Denver Center
09:17AM 38.8086 -102.8994 252° West 374 430 38,000  Level Denver Center
09:18AM 38.7781 -103.0272 253° West 372 428 38,000  Level Denver Center
09:19AM 38.7481 -103.1542 253° West 370 426 38,000  Level Denver Center
09:20AM 38.7164 -103.2817 252° West 372 428 38,000  Level Denver Center
09:21AM 38.6836 -103.4103 252° West 376 433 38,000  Level Denver Center
09:22AM 38.6528 -103.5367 253° West 380 437 38,000  Level Denver Center
09:23AM 38.6211 -103.6600 252° West 381 438 38,000  Level Denver Center
09:24AM 38.5850 -103.8056 252° West 385 443 38,000  Level Denver Center
09:25AM 38.5528 -103.9297 252° West 385 443 38,000  Level Denver Center
09:26AM 38.5217 -104.0544 252° West 386 444 38,000  Level Denver Center
09:27AM 38.4839 -104.2053 252° West 400 460 38,000  Level Denver Center
09:28AM 38.4483 -104.3428 252° West 402 463 38,000  Level Denver Center
09:29AM 38.4189 -104.4603 252° West 409 471 38,000  Level Denver Center
09:30AM 38.3758 -104.6219 251° West 409 471 38,000  Level Denver Center
09:31AM 38.3397 -104.7606 252° West 408 470 38,000  Level Denver Center
09:32AM 38.3086 -104.8828 252° West 407 468 38,000  Level Denver Center
09:33AM 38.2675 -105.0347 251° West 407 468 38,000  Level Denver Center
09:34AM 38.2331 -105.1644 251° West 405 466 38,000  Level Denver Center
09:35AM 38.1981 -105.2958 251° West 409 471 38,000  Level Denver Center
09:36AM 38.1567 -105.4500 251° West 413 475 38,000  Level Denver Center
09:37AM 38.1214 -105.5833 251° West 415 478 38,000  Level Denver Center
09:38AM 38.0853 -105.7169 251° West 417 480 38,000  Level Denver Center
09:39AM 38.0422 -105.8728 251° West 419 482 38,000  Level Denver Center
09:40AM 38.0047 -106.0072 251° West 423 487 38,000  Level Denver Center
09:41AM 37.9681 -106.1419 251° West 422 486 38,000  Level Denver Center
09:42AM 37.9228 -106.3006 250° West 428 493 38,000  Level Denver Center
09:43AM 37.8867 -106.4358 251° West 423 487 38,000  Level Denver Center
09:45AM 37.8347 -106.6194 250° West 424 488 38,000  Level Denver Center
09:46AM 37.7967 -106.7519 250° West 424 488 38,000  Level Denver Center
09:47AM 37.7586 -106.8853 250° West 422 486 38,000  Level Denver Center
09:48AM 37.7156 -107.0422 251° West 423 487 38,000  Level Denver Center
09:49AM 37.6772 -107.1739 250° West 419 482 38,000  Level Denver Center
09:50AM 37.6328 -107.3281 250° West 419 482 38,000  Level Denver Center
09:51AM 37.5944 -107.4611 250° West 420 483 38,000  Level Denver Center
09:52AM 37.5547 -107.5944 249° West 425 489 38,000  Level Denver Center
09:53AM 37.5097 -107.7519 250° West 428 493 38,000  Level Denver Center
09:54AM 37.4700 -107.8875 250° West 431 496 38,000  Level Denver Center
09:55AM 37.4303 -108.0211 250° West 428 493 38,000  Level Denver Center
09:56AM 37.3831 -108.1800 250° West 433 498 38,000  Level Denver Center
09:57AM 37.3422 -108.3144 249° West 434 499 38,000  Level Denver Center
09:58AM 37.3017 -108.4497 249° West 434 499 38,000  Level Denver Center
09:59AM 37.2550 -108.6064 250° West 432 497 38,000  Level Denver Center
10:00AM 37.2069 -108.7614 249° West 429 494 38,000  Level Denver Center
10:01AM 37.1661 -108.8944 249° West 428 493 38,000  Level Denver Center
10:02AM 37.1247 -109.0294 249° West 433 498 38,000  Level Denver Center
10:03AM 37.0772 -109.1850 249° West 429 494 38,000  Level Denver Center
10:04AM 37.0358 -109.3197 249° West 432 497 38,000  Level Denver Center
10:05AM 36.9936 -109.4539 249° West 436 502 38,000  Level Denver Center
10:06AM 36.9447 -109.6097 249° West 434 499 38,000  Level Denver Center
10:07AM 36.9017 -109.7456 248° West 438 504 38,000  Level Denver Center
10:08AM 36.8528 -109.9042 249° West 440 506 38,000  Level Denver Center
10:09AM 36.8089 -110.0383 248° West 438 504 38,000  Level Denver Center
10:10AM 36.7633 -110.1833 249° West 436 502 38,000  Level Denver Center
10:11AM 36.7181 -110.3244 248° West 437 503 38,000  Level Denver Center
10:12AM 36.6725 -110.4667 248° West 442 509 38,000  Level Denver Center
10:13AM 36.6261 -110.6072 248° West 441 507 38,000  Level Denver Center
10:14AM 36.5814 -110.7486 249° West 441 507 38,000  Level Denver Center
10:15AM 36.5353 -110.8906 248° West 442 509 38,000  Level Denver Center
10:16AM 36.4892 -111.0331 248° West 443 510 38,000  Level Denver Center
10:17AM 36.4317 -111.2028 247° West 444 511 38,000  Level Denver Center
10:18AM 36.3739 -111.3747 247° West 449 517 38,000  Level Denver Center
10:19AM 36.3222 -111.5136 245° Southwest 445 512 38,000  Level Denver Center
10:20AM 36.2714 -111.6528 246° West 444 511 38,000  Level Denver Center
10:21AM 36.2206 -111.7919 246° West 444 511 38,000  Level Denver Center
10:22AM 36.1892 -111.8756 245° Southwest 444 511 38,000  Level Los Angeles Center
10:23AM 36.1392 -112.0119 246° West 449 517 38,000  Level Los Angeles Center
10:24AM 36.0878 -112.1492 245° Southwest 445 512 38,000  Level Los Angeles Center
10:25AM 36.0353 -112.2925 246° West 439 505 38,000  Level Los Angeles Center
10:26AM 35.9731 -112.4600 245° Southwest 446 513 38,000  Level Los Angeles Center
10:27AM 35.9242 -112.5906 245° Southwest 447 514 38,000  Level Los Angeles Center
10:28AM 35.8722 -112.7289 245° Southwest 449 517 38,000  Level Los Angeles Center
10:29AM 35.8200 -112.8664 245° Southwest 447 514 38,000  Level Los Angeles Center
10:30AM 35.7686 -113.0044 245° Southwest 449 517 38,000  Level Los Angeles Center
10:31AM 35.7047 -113.1686 244° Southwest 450 518 38,000  Level Los Angeles Center
10:32AM 35.6533 -113.3047 245° Southwest 446 513 38,000  Level Los Angeles Center
10:33AM 35.6011 -113.4411 245° Southwest 446 513 38,000  Level Los Angeles Center
10:34AM 35.5492 -113.5775 245° Southwest 445 512 38,000  Level Los Angeles Center
10:36AM 35.4961 -113.7161 245° Southwest 449 517 38,000  Level Los Angeles Center
10:37AM 35.4308 -113.8822 244° Southwest 452 520 38,000  Level Los Angeles Center
10:38AM 35.3681 -114.0433 244° Southwest 452 520 38,000  Level Los Angeles Center
10:39AM 35.3131 -114.1814 244° Southwest 449 517 38,000  Level Los Angeles Center
10:40AM 35.2592 -114.3186 244° Southwest 447 514 38,000  Level Los Angeles Center
10:41AM 35.2058 -114.4550 244° Southwest 444 511 38,000  Level Los Angeles Center
10:42AM 35.1511 -114.5897 244° Southwest 441 507 38,000  Level Los Angeles Center
10:43AM 35.0850 -114.7561 244° Southwest 445 512 38,000  Level Los Angeles Center
10:44AM 35.0300 -114.8922 244° Southwest 445 512 38,000  Level Los Angeles Center
10:45AM 34.9761 -115.0261 244° Southwest 442 509 38,000  Level Los Angeles Center
10:46AM 34.9108 -115.1906 244° Southwest 446 513 38,000  Level Los Angeles Center
10:47AM 34.8550 -115.3286 244° Southwest 453 521 38,000  Level Los Angeles Center
10:48AM 34.7986 -115.4619 243° Southwest 450 518 38,000  Level Los Angeles Center
10:49AM 34.7364 -115.6131 243° Southwest 450 518 38,000  Level Los Angeles Center
10:50AM 34.6808 -115.7492 244° Southwest 449 517 38,000  Level Los Angeles Center
10:51AM 34.6239 -115.8864 243° Southwest 453 521 38,000  Level Los Angeles Center
10:52AM 34.5678 -116.0228 243° Southwest 453 521 38,000 -780 Level Los Angeles Center
10:53AM 34.5106 -116.1592 243° Southwest 453 521 36,400 -1,920 Descending Los Angeles Center
10:54AM 34.4533 -116.2964 243° Southwest 455 524 34,000 -2,820 Descending Los Angeles Center
10:55AM 34.3892 -116.4503 243° Southwest 431 496 30,600 -3,180 Descending Los Angeles Center
10:57AM 34.3325 -116.5825 243° Southwest 439 505 27,500 -2,640 Descending Los Angeles Center
10:58AM 34.2778 -116.7092 242° Southwest 427 491 25,200 -2,100 Descending Los Angeles Center
10:59AM 34.2258 -116.8325 243° Southwest 413 475 22,800 -2,280 Descending Los Angeles Center
11:00AM 34.1669 -116.9706 243° Southwest 387 445 20,100 -1,800 Descending Los Angeles Center
11:01AM 34.1000 -117.1167 241° Southwest 369 425 19,000 -480 Descending Southern California TRACON
11:02AM 34.0500 -117.2167 239° Southwest 369 425 19,100  Climbing Southern California TRACON
11:03AM 34.0333 -117.3167 259° West 271 312 19,000 -1,680 Descending Southern California TRACON
11:04AM 34.0333 -117.4000 270° West 294 338 16,000 -2,760 Descending Southern California TRACON
11:05AM 34.0333 -117.5167 270° West 271 312 13,500 -2,400 Descending Southern California TRACON
11:06AM 34.0333 -117.5833 270° West 283 326 11,300 -1,800 Descending Southern California TRACON
11:07AM 34.0167 -117.6833 259° West 276 318 10,100 -1,080 Descending Southern California TRACON
11:08AM 34.0167 -117.7833 270° West 282 325 9,300 -1,320 Descending Southern California TRACON
11:09AM 34.0000 -117.8667 256° West 267 307 7,700 -1,320 Descending Southern California TRACON
11:10AM 34.0000 -117.9500 270° West 267 307 6,700 -1,140 Descending Southern California TRACON
11:11AM 33.9833 -118.0333 256° West 244 281 5,600 -1,260 Descending Southern California TRACON
11:12AM 33.9833 -118.1000 270° West 242 278 4,500 -960 Descending Southern California TRACON
11:12AM 33.9775 -118.1542 263° West 240 276 4,000 -900 Descending Los Angeles Center
11:13AM 33.9692 -118.2331 263° West 202 232 2,900 -1,080 Descending Los Angeles Center
11:14AM 33.9633 -118.2969 264° West 196 226 1,800 -960 Descending Los Angeles Center
11:15AM 33.9581 -118.3511 263° West 179 206 1,000 -720 Descending Los Angeles Center
11:16AM 33.9533 -118.3944 263° West 149 171 300 -720 Descending Los Angeles Center
11:18AM 33.9333 -118.4000 259° West  Level FlightAware Approximate
11:25AM 33.9425 -118.4081 259° West  Level Estimated
11:26AM 33.9425 -118.4081 259° West  Level Estimated